Huvudsida
METAR-TAF:

METAR-TAF

Flygplatser :

Al Wajh, Saudiarabien

latitud: 26-12N, longitud: 036-28E, höjd: 20 m

Aktuellt väderrapport

Denna rapport gjordes för 56 minuter sedan, klockan 14:00 UTC
Vind 24 kt från nordväst
Temperatur 27°C
Fuktighet 54%
Tryck 1013 hPa
Sikt 10 km eller mer
Inga moln under 1 500 m eller inga cumulonimbus

METAR: OEWJ 231400Z 31024KT CAVOK 27/17 Q1013 NOSIG

Tid: 17:56 (14:56 UTC)

Väderprognos

Denna rapport gjordes för 3 timmar och 56 minuter sedan, klockan 11:00 UTC
Prognos gäller från 23 kl. 12 UTC till 24 kl. 18 UTC
Vind 8 kt från väst/nordväst i byarna ända upp till 18 kt
Sikt: 7000 m
Klar himmel
Blir
från 23 kl. 18 UTC till 23 kl. 20 UTC
Vind 8 kt från nord/nordost i byarna ända upp till 18 kt
Temporärt
från 23 kl. 20 UTC till 24 kl. 06 UTC
Sikt: 3500 m
högt damm drev

TAF: OEWJ 231100Z 2312/2418 30008G18KT 7000 SKC BECMG 2318/2320 03008G18KT TEMPO 2320/2406 3500 BLDU

Aktuella väderrapporter och prognoser från 4000 flygplatser (METAR- och TAF-rapporter).

De tillgängliga stationerna syns som gula och röda prickar på kartan.

För musen över prickarna för att se namnen på stationerna.

Klicka sedan för att få väderrapporter och prognoser.

För att ändra kartan: Klicka på de gröna knapparna med ett svart kors på för att zooma in; den gröna knappen med ett streck på för att zooma ut; eller på de gröna pilarna för angränsande kartor.


METAR-TAF: